sensor_id;sensor_type;location;lat;lon;timestamp;pressure;altitude;pressure_sealevel;temperature;humidity
43153;BME280;28756;49.064;9.290;2022-07-06T00:00:53;99597.66;;;13.46;81.07
43153;BME280;28756;49.064;9.290;2022-07-06T00:03:18;99601.50;;;13.40;80.44
43153;BME280;28756;49.064;9.290;2022-07-06T00:05:44;99602.34;;;13.41;81.37
43153;BME280;28756;49.064;9.290;2022-07-06T00:08:10;99607.56;;;13.41;81.85
43153;BME280;28756;49.064;9.290;2022-07-06T00:10:36;99614.56;;;13.40;83.08
43153;BME280;28756;49.064;9.290;2022-07-06T00:13:01;99608.66;;;13.37;82.69
43153;BME280;28756;49.064;9.290;2022-07-06T00:15:27;99603.50;;;13.35;83.09
43153;BME280;28756;49.064;9.290;2022-07-06T00:17:53;99608.72;;;13.35;83.58
43153;BME280;28756;49.064;9.290;2022-07-06T00:20:19;99601.56;;;13.39;83.32
43153;BME280;28756;49.064;9.290;2022-07-06T00:22:44;99605.88;;;13.40;83.51
43153;BME280;28756;49.064;9.290;2022-07-06T00:25:10;99607.66;;;13.39;83.40
43153;BME280;28756;49.064;9.290;2022-07-06T00:27:36;99602.66;;;13.35;83.60
43153;BME280;28756;49.064;9.290;2022-07-06T00:30:01;99609.94;;;13.30;83.81
43153;BME280;28756;49.064;9.290;2022-07-06T00:32:27;99607.59;;;13.25;83.79
43153;BME280;28756;49.064;9.290;2022-07-06T00:34:53;99604.22;;;13.23;84.10
43153;BME280;28756;49.064;9.290;2022-07-06T00:37:19;99604.47;;;13.18;84.93
43153;BME280;28756;49.064;9.290;2022-07-06T00:39:45;99604.22;;;13.07;84.38
43153;BME280;28756;49.064;9.290;2022-07-06T00:42:11;99600.22;;;13.01;85.29
43153;BME280;28756;49.064;9.290;2022-07-06T00:44:36;99607.69;;;12.91;84.79
43153;BME280;28756;49.064;9.290;2022-07-06T00:47:02;99603.69;;;12.86;84.98
43153;BME280;28756;49.064;9.290;2022-07-06T00:49:28;99613.53;;;12.80;84.77
43153;BME280;28756;49.064;9.290;2022-07-06T00:52:12;99613.03;;;12.74;85.39
43153;BME280;28756;49.064;9.290;2022-07-06T00:54:39;99614.69;;;12.75;86.52
43153;BME280;28756;49.064;9.290;2022-07-06T00:57:06;99622.13;;;12.67;86.30
43153;BME280;28756;49.064;9.290;2022-07-06T00:59:32;99618.81;;;12.63;86.61
43153;BME280;28756;49.064;9.290;2022-07-06T01:01:58;99620.69;;;12.61;86.00
43153;BME280;28756;49.064;9.290;2022-07-06T01:04:24;99626.75;;;12.61;86.08
43153;BME280;28756;49.064;9.290;2022-07-06T01:06:50;99616.22;;;12.63;84.99
43153;BME280;28756;49.064;9.290;2022-07-06T01:09:16;99623.97;;;12.64;86.35
43153;BME280;28756;49.064;9.290;2022-07-06T01:11:42;99624.13;;;12.61;86.87
43153;BME280;28756;49.064;9.290;2022-07-06T01:14:08;99626.25;;;12.55;87.20
43153;BME280;28756;49.064;9.290;2022-07-06T01:16:34;99617.81;;;12.50;87.46
43153;BME280;28756;49.064;9.290;2022-07-06T01:19:00;99612.84;;;12.45;87.09
43153;BME280;28756;49.064;9.290;2022-07-06T01:21:26;99611.34;;;12.41;86.53
43153;BME280;28756;49.064;9.290;2022-07-06T01:23:52;99612.16;;;12.41;85.92
43153;BME280;28756;49.064;9.290;2022-07-06T01:26:20;99618.50;;;12.37;86.27
43153;BME280;28756;49.064;9.290;2022-07-06T01:28:48;99606.47;;;12.35;86.55
43153;BME280;28756;49.064;9.290;2022-07-06T01:31:20;99605.78;;;12.31;87.02
43153;BME280;28756;49.064;9.290;2022-07-06T01:33:46;99606.03;;;12.26;86.58
43153;BME280;28756;49.064;9.290;2022-07-06T01:36:13;99610.38;;;12.26;86.23
43153;BME280;28756;49.064;9.290;2022-07-06T01:38:53;99603.56;;;12.23;86.60
43153;BME280;28756;49.064;9.290;2022-07-06T01:41:20;99612.31;;;12.22;86.82
43153;BME280;28756;49.064;9.290;2022-07-06T01:43:46;99615.78;;;12.23;87.19
43153;BME280;28756;49.064;9.290;2022-07-06T01:46:13;99614.81;;;12.24;87.92
43153;BME280;28756;49.064;9.290;2022-07-06T01:48:39;99608.94;;;12.20;87.09
43153;BME280;28756;49.064;9.290;2022-07-06T01:51:05;99602.75;;;12.23;87.98
43153;BME280;28756;49.064;9.290;2022-07-06T01:53:31;99608.19;;;12.18;87.09
43153;BME280;28756;49.064;9.290;2022-07-06T01:55:57;99609.78;;;12.21;87.02
43153;BME280;28756;49.064;9.290;2022-07-06T01:58:23;99618.63;;;12.18;87.85
43153;BME280;28756;49.064;9.290;2022-07-06T02:00:48;99610.88;;;12.16;87.82
43153;BME280;28756;49.064;9.290;2022-07-06T02:03:14;99619.78;;;12.12;87.65
43153;BME280;28756;49.064;9.290;2022-07-06T02:05:40;99624.69;;;12.01;88.13
43153;BME280;28756;49.064;9.290;2022-07-06T02:08:05;99622.03;;;12.03;88.13
43153;BME280;28756;49.064;9.290;2022-07-06T02:10:32;99621.94;;;12.04;88.68
43153;BME280;28756;49.064;9.290;2022-07-06T02:12:57;99619.44;;;12.03;88.68
43153;BME280;28756;49.064;9.290;2022-07-06T02:15:23;99623.78;;;12.02;88.58
43153;BME280;28756;49.064;9.290;2022-07-06T02:17:49;99623.25;;;11.95;89.23
43153;BME280;28756;49.064;9.290;2022-07-06T02:20:14;99623.53;;;11.89;88.67
43153;BME280;28756;49.064;9.290;2022-07-06T02:22:40;99623.63;;;11.88;88.32
43153;BME280;28756;49.064;9.290;2022-07-06T02:25:07;99616.72;;;11.87;88.69
43153;BME280;28756;49.064;9.290;2022-07-06T02:27:33;99634.06;;;11.88;88.81
43153;BME280;28756;49.064;9.290;2022-07-06T02:29:59;99630.00;;;11.82;89.56
43153;BME280;28756;49.064;9.290;2022-07-06T02:32:25;99631.00;;;11.79;89.76
43153;BME280;28756;49.064;9.290;2022-07-06T02:34:51;99627.78;;;11.74;89.44
43153;BME280;28756;49.064;9.290;2022-07-06T02:37:18;99621.81;;;11.72;89.34
43153;BME280;28756;49.064;9.290;2022-07-06T02:39:44;99630.53;;;11.71;89.08
43153;BME280;28756;49.064;9.290;2022-07-06T02:42:09;99619.28;;;11.71;90.04
43153;BME280;28756;49.064;9.290;2022-07-06T02:44:35;99616.81;;;11.67;89.39
43153;BME280;28756;49.064;9.290;2022-07-06T02:47:01;99617.66;;;11.68;89.28
43153;BME280;28756;49.064;9.290;2022-07-06T02:49:26;99615.06;;;11.68;90.03
43153;BME280;28756;49.064;9.290;2022-07-06T02:51:52;99625.66;;;11.65;90.35
43153;BME280;28756;49.064;9.290;2022-07-06T02:54:18;99625.78;;;11.62;90.30
43153;BME280;28756;49.064;9.290;2022-07-06T02:56:44;99635.81;;;11.52;90.38
43153;BME280;28756;49.064;9.290;2022-07-06T02:59:13;99639.53;;;11.48;90.29
43153;BME280;28756;49.064;9.290;2022-07-06T03:01:39;99643.19;;;11.44;90.45
43153;BME280;28756;49.064;9.290;2022-07-06T03:04:04;99639.06;;;11.40;90.43
43153;BME280;28756;49.064;9.290;2022-07-06T03:06:31;99649.59;;;11.36;90.32
43153;BME280;28756;49.064;9.290;2022-07-06T03:08:56;99652.13;;;11.38;90.49
43153;BME280;28756;49.064;9.290;2022-07-06T03:11:22;99650.44;;;11.37;90.79
43153;BME280;28756;49.064;9.290;2022-07-06T03:13:48;99649.75;;;11.33;90.93
43153;BME280;28756;49.064;9.290;2022-07-06T03:16:13;99651.59;;;11.31;91.04
43153;BME280;28756;49.064;9.290;2022-07-06T03:18:39;99654.34;;;11.28;91.06
43153;BME280;28756;49.064;9.290;2022-07-06T03:21:05;99656.34;;;11.23;91.81
43153;BME280;28756;49.064;9.290;2022-07-06T03:23:31;99657.34;;;11.20;91.60
43153;BME280;28756;49.064;9.290;2022-07-06T03:25:57;99652.41;;;11.14;91.58
43153;BME280;28756;49.064;9.290;2022-07-06T03:28:22;99661.06;;;11.15;91.96
43153;BME280;28756;49.064;9.290;2022-07-06T03:30:48;99661.06;;;11.15;91.77
43153;BME280;28756;49.064;9.290;2022-07-06T03:33:14;99661.06;;;11.15;91.63
43153;BME280;28756;49.064;9.290;2022-07-06T03:35:39;99663.72;;;11.13;91.45
43153;BME280;28756;49.064;9.290;2022-07-06T03:38:05;99663.88;;;11.10;91.96
43153;BME280;28756;49.064;9.290;2022-07-06T03:40:31;99675.06;;;11.12;92.05
43153;BME280;28756;49.064;9.290;2022-07-06T03:42:57;99668.22;;;11.10;92.18
43153;BME280;28756;49.064;9.290;2022-07-06T03:45:22;99670.91;;;11.08;92.56
43153;BME280;28756;49.064;9.290;2022-07-06T03:47:48;99672.69;;;11.08;92.55
43153;BME280;28756;49.064;9.290;2022-07-06T03:50:14;99673.50;;;11.08;92.57
43153;BME280;28756;49.064;9.290;2022-07-06T03:52:39;99676.19;;;11.06;92.33
43153;BME280;28756;49.064;9.290;2022-07-06T03:55:12;99680.41;;;11.09;92.34
43153;BME280;28756;49.064;9.290;2022-07-06T03:57:38;99679.50;;;11.10;91.93
43153;BME280;28756;49.064;9.290;2022-07-06T04:00:07;99673.38;;;11.11;92.41
43153;BME280;28756;49.064;9.290;2022-07-06T04:02:33;99685.53;;;11.11;92.57
43153;BME280;28756;49.064;9.290;2022-07-06T04:04:59;99677.69;;;11.12;92.30
43153;BME280;28756;49.064;9.290;2022-07-06T04:07:25;99680.91;;;11.17;92.04
43153;BME280;28756;49.064;9.290;2022-07-06T04:09:51;99685.97;;;11.20;91.77
43153;BME280;28756;49.064;9.290;2022-07-06T04:12:18;99680.69;;;11.22;91.40
43153;BME280;28756;49.064;9.290;2022-07-06T04:14:43;99686.59;;;11.26;92.06
43153;BME280;28756;49.064;9.290;2022-07-06T04:17:09;99684.81;;;11.26;91.69
43153;BME280;28756;49.064;9.290;2022-07-06T04:19:53;99676.72;;;11.32;91.53
43153;BME280;28756;49.064;9.290;2022-07-06T04:22:19;99691.28;;;11.36;91.36
43153;BME280;28756;49.064;9.290;2022-07-06T04:24:45;99695.47;;;11.39;91.45
43153;BME280;28756;49.064;9.290;2022-07-06T04:27:11;99700.69;;;11.39;91.00
43153;BME280;28756;49.064;9.290;2022-07-06T04:29:36;99692.66;;;11.44;91.55
43153;BME280;28756;49.064;9.290;2022-07-06T04:32:03;99696.19;;;11.43;91.17
43153;BME280;28756;49.064;9.290;2022-07-06T04:34:29;99693.53;;;11.44;90.61
43153;BME280;28756;49.064;9.290;2022-07-06T04:36:54;99706.47;;;11.46;90.39
43153;BME280;28756;49.064;9.290;2022-07-06T04:39:20;99701.94;;;11.49;90.57
43153;BME280;28756;49.064;9.290;2022-07-06T04:41:46;99702.50;;;11.56;90.57
43153;BME280;28756;49.064;9.290;2022-07-06T04:44:11;99701.03;;;11.68;90.96
43153;BME280;28756;49.064;9.290;2022-07-06T04:46:37;99705.03;;;11.75;90.49
43153;BME280;28756;49.064;9.290;2022-07-06T04:49:03;99711.41;;;11.87;90.86
43153;BME280;28756;49.064;9.290;2022-07-06T04:51:28;99707.19;;;12.02;90.81
43153;BME280;28756;49.064;9.290;2022-07-06T04:53:54;99706.88;;;12.08;90.70
43153;BME280;28756;49.064;9.290;2022-07-06T04:56:20;99712.72;;;12.13;90.36
43153;BME280;28756;49.064;9.290;2022-07-06T04:58:45;99707.03;;;12.23;90.05
43153;BME280;28756;49.064;9.290;2022-07-06T05:01:11;99711.44;;;12.72;88.70
43153;BME280;28756;49.064;9.290;2022-07-06T05:03:37;99712.13;;;13.23;87.19
43153;BME280;28756;49.064;9.290;2022-07-06T05:06:06;99709.72;;;13.67;85.20
43153;BME280;28756;49.064;9.290;2022-07-06T05:08:33;99701.59;;;14.02;83.30
43153;BME280;28756;49.064;9.290;2022-07-06T05:11:00;99691.81;;;14.63;81.67
43153;BME280;28756;49.064;9.290;2022-07-06T05:13:26;99706.28;;;14.98;79.39
43153;BME280;28756;49.064;9.290;2022-07-06T05:15:52;99696.81;;;15.37;76.24
43153;BME280;28756;49.064;9.290;2022-07-06T05:18:18;99694.44;;;15.74;76.84
43153;BME280;28756;49.064;9.290;2022-07-06T05:20:43;99693.06;;;15.82;76.53
43153;BME280;28756;49.064;9.290;2022-07-06T05:23:10;99701.25;;;15.77;76.85
43153;BME280;28756;49.064;9.290;2022-07-06T05:25:35;99694.47;;;16.00;75.43
43153;BME280;28756;49.064;9.290;2022-07-06T05:28:03;99704.91;;;15.74;75.23
43153;BME280;28756;49.064;9.290;2022-07-06T05:30:28;99705.06;;;15.58;76.41
43153;BME280;28756;49.064;9.290;2022-07-06T05:32:54;99696.06;;;16.29;75.36
43153;BME280;28756;49.064;9.290;2022-07-06T05:35:20;99695.31;;;16.39;75.16
43153;BME280;28756;49.064;9.290;2022-07-06T05:37:46;99697.19;;;16.63;73.04
43153;BME280;28756;49.064;9.290;2022-07-06T05:40:12;99698.63;;;16.80;72.28
43153;BME280;28756;49.064;9.290;2022-07-06T05:42:37;99701.47;;;16.77;72.28
43153;BME280;28756;49.064;9.290;2022-07-06T05:45:03;99703.50;;;16.61;72.09
43153;BME280;28756;49.064;9.290;2022-07-06T05:47:30;99701.13;;;16.32;70.13
43153;BME280;28756;49.064;9.290;2022-07-06T05:50:15;99704.13;;;16.38;70.69
43153;BME280;28756;49.064;9.290;2022-07-06T05:52:42;99705.38;;;16.46;71.04
43153;BME280;28756;49.064;9.290;2022-07-06T05:55:09;99703.72;;;16.06;70.57
43153;BME280;28756;49.064;9.290;2022-07-06T05:57:35;99699.44;;;16.31;72.44
43153;BME280;28756;49.064;9.290;2022-07-06T06:00:04;99708.31;;;16.54;71.01
43153;BME280;28756;49.064;9.290;2022-07-06T06:02:41;99706.31;;;16.70;71.67
43153;BME280;28756;49.064;9.290;2022-07-06T06:05:09;99698.22;;;17.48;68.78
43153;BME280;28756;49.064;9.290;2022-07-06T06:07:40;99705.19;;;16.62;71.02
43153;BME280;28756;49.064;9.290;2022-07-06T06:10:09;99695.13;;;16.30;70.93
43153;BME280;28756;49.064;9.290;2022-07-06T06:12:36;99696.09;;;16.79;70.94
43153;BME280;28756;49.064;9.290;2022-07-06T06:15:03;99698.81;;;17.03;68.71
43153;BME280;28756;49.064;9.290;2022-07-06T06:17:29;99711.03;;;16.78;68.92
43153;BME280;28756;49.064;9.290;2022-07-06T06:19:55;99706.56;;;16.41;69.34
43153;BME280;28756;49.064;9.290;2022-07-06T06:22:21;99698.16;;;16.23;70.13
43153;BME280;28756;49.064;9.290;2022-07-06T06:24:46;99708.53;;;16.64;71.22
43153;BME280;28756;49.064;9.290;2022-07-06T06:27:13;99704.97;;;17.15;67.31
43153;BME280;28756;49.064;9.290;2022-07-06T06:32:06;99693.66;;;17.86;63.44
43153;BME280;28756;49.064;9.290;2022-07-06T06:34:32;99703.41;;;17.36;67.33
43153;BME280;28756;49.064;9.290;2022-07-06T06:36:59;99712.91;;;17.50;67.59
43153;BME280;28756;49.064;9.290;2022-07-06T06:39:25;99716.03;;;17.56;67.97
43153;BME280;28756;49.064;9.290;2022-07-06T06:41:56;99715.13;;;17.68;64.49
43153;BME280;28756;49.064;9.290;2022-07-06T06:44:22;99714.94;;;17.47;65.67
43153;BME280;28756;49.064;9.290;2022-07-06T06:46:51;99705.31;;;17.70;67.82
43153;BME280;28756;49.064;9.290;2022-07-06T06:49:20;99708.75;;;17.95;66.63
43153;BME280;28756;49.064;9.290;2022-07-06T06:51:48;99700.00;;;18.30;63.58
43153;BME280;28756;49.064;9.290;2022-07-06T06:54:14;99705.00;;;18.78;62.49
43153;BME280;28756;49.064;9.290;2022-07-06T06:56:43;99701.19;;;18.60;62.23
43153;BME280;28756;49.064;9.290;2022-07-06T06:59:14;99711.72;;;17.79;62.85
43153;BME280;28756;49.064;9.290;2022-07-06T07:01:40;99708.50;;;17.87;63.73
43153;BME280;28756;49.064;9.290;2022-07-06T07:04:08;99710.56;;;17.94;63.93
43153;BME280;28756;49.064;9.290;2022-07-06T07:06:39;99705.72;;;18.35;63.85
43153;BME280;28756;49.064;9.290;2022-07-06T07:09:07;99707.72;;;17.97;65.03
43153;BME280;28756;49.064;9.290;2022-07-06T07:11:39;99710.38;;;18.09;62.64
43153;BME280;28756;49.064;9.290;2022-07-06T07:14:09;99699.75;;;18.44;61.44
43153;BME280;28756;49.064;9.290;2022-07-06T07:16:34;99697.59;;;18.72;60.22
43153;BME280;28756;49.064;9.290;2022-07-06T07:19:03;99700.09;;;18.85;58.81
43153;BME280;28756;49.064;9.290;2022-07-06T07:21:31;99701.03;;;18.05;61.05
43153;BME280;28756;49.064;9.290;2022-07-06T07:24:00;99697.25;;;18.31;62.17
43153;BME280;28756;49.064;9.290;2022-07-06T07:26:36;99699.25;;;18.85;62.71
43153;BME280;28756;49.064;9.290;2022-07-06T07:29:03;99691.66;;;19.14;59.04
43153;BME280;28756;49.064;9.290;2022-07-06T07:31:34;99695.25;;;19.78;56.79
43153;BME280;28756;49.064;9.290;2022-07-06T07:34:14;99687.56;;;20.39;57.93
43153;BME280;28756;49.064;9.290;2022-07-06T07:36:43;99685.31;;;20.34;54.39
43153;BME280;28756;49.064;9.290;2022-07-06T07:39:12;99691.44;;;21.16;55.49
43153;BME280;28756;49.064;9.290;2022-07-06T07:41:48;99681.28;;;20.71;53.80
43153;BME280;28756;49.064;9.290;2022-07-06T07:44:21;99690.13;;;20.81;55.59
43153;BME280;28756;49.064;9.290;2022-07-06T07:46:52;99689.66;;;20.14;54.86
43153;BME280;28756;49.064;9.290;2022-07-06T07:49:21;99691.09;;;19.43;56.85
43153;BME280;28756;49.064;9.290;2022-07-06T07:51:50;99693.50;;;20.00;56.30
43153;BME280;28756;49.064;9.290;2022-07-06T07:54:16;99683.56;;;20.44;54.28
43153;BME280;28756;49.064;9.290;2022-07-06T07:56:42;99690.13;;;20.19;54.57
43153;BME280;28756;49.064;9.290;2022-07-06T07:59:09;99685.06;;;19.73;56.56
43153;BME280;28756;49.064;9.290;2022-07-06T08:01:37;99686.72;;;19.32;57.77
43153;BME280;28756;49.064;9.290;2022-07-06T08:04:04;99688.06;;;19.80;56.61
43153;BME280;28756;49.064;9.290;2022-07-06T08:06:29;99673.69;;;20.77;52.22
43153;BME280;28756;49.064;9.290;2022-07-06T08:08:55;99674.84;;;21.04;54.50
43153;BME280;28756;49.064;9.290;2022-07-06T08:11:21;99680.25;;;20.52;54.98
43153;BME280;28756;49.064;9.290;2022-07-06T08:13:47;99682.56;;;19.72;55.91
43153;BME280;28756;49.064;9.290;2022-07-06T08:16:13;99674.44;;;20.58;55.53
43153;BME280;28756;49.064;9.290;2022-07-06T08:18:39;99689.66;;;20.76;54.61
43153;BME280;28756;49.064;9.290;2022-07-06T08:21:07;99674.91;;;20.73;54.53
43153;BME280;28756;49.064;9.290;2022-07-06T08:23:36;99670.28;;;21.26;54.41
43153;BME280;28756;49.064;9.290;2022-07-06T08:26:02;99654.69;;;21.82;53.55
43153;BME280;28756;49.064;9.290;2022-07-06T08:28:29;99672.25;;;21.53;55.49
43153;BME280;28756;49.064;9.290;2022-07-06T08:30:56;99672.91;;;21.06;54.33
43153;BME280;28756;49.064;9.290;2022-07-06T08:33:21;99670.81;;;21.00;54.31
43153;BME280;28756;49.064;9.290;2022-07-06T08:35:47;99675.00;;;21.03;53.81
43153;BME280;28756;49.064;9.290;2022-07-06T08:38:13;99678.88;;;20.58;54.14
43153;BME280;28756;49.064;9.290;2022-07-06T08:40:41;99659.00;;;21.73;52.63
43153;BME280;28756;49.064;9.290;2022-07-06T08:43:09;99662.16;;;22.34;52.12
43153;BME280;28756;49.064;9.290;2022-07-06T08:45:35;99658.84;;;21.74;51.32
43153;BME280;28756;49.064;9.290;2022-07-06T08:48:05;99677.09;;;21.38;52.32
43153;BME280;28756;49.064;9.290;2022-07-06T08:50:33;99667.88;;;22.01;52.03
43153;BME280;28756;49.064;9.290;2022-07-06T08:53:00;99664.88;;;21.67;52.11
43153;BME280;28756;49.064;9.290;2022-07-06T08:55:26;99663.03;;;21.87;52.94
43153;BME280;28756;49.064;9.290;2022-07-06T08:57:55;99665.94;;;21.84;51.17
43153;BME280;28756;49.064;9.290;2022-07-06T09:00:22;99660.09;;;21.80;52.00
43153;BME280;28756;49.064;9.290;2022-07-06T09:02:49;99670.94;;;21.97;51.40
43153;BME280;28756;49.064;9.290;2022-07-06T09:05:17;99674.47;;;21.77;51.79
43153;BME280;28756;49.064;9.290;2022-07-06T09:07:46;99663.81;;;22.54;50.59
43153;BME280;28756;49.064;9.290;2022-07-06T09:10:17;99668.47;;;22.33;50.94
43153;BME280;28756;49.064;9.290;2022-07-06T09:12:43;99671.25;;;22.31;49.46
43153;BME280;28756;49.064;9.290;2022-07-06T09:15:12;99675.00;;;22.01;52.93
43153;BME280;28756;49.064;9.290;2022-07-06T09:17:39;99668.16;;;22.74;51.86
43153;BME280;28756;49.064;9.290;2022-07-06T09:20:17;99676.66;;;22.02;52.69
43153;BME280;28756;49.064;9.290;2022-07-06T09:22:47;99671.47;;;23.03;51.36
43153;BME280;28756;49.064;9.290;2022-07-06T09:25:15;99681.50;;;22.06;49.63
43153;BME280;28756;49.064;9.290;2022-07-06T09:27:46;99679.09;;;22.23;52.92
43153;BME280;28756;49.064;9.290;2022-07-06T09:30:21;99678.75;;;22.36;50.79
43153;BME280;28756;49.064;9.290;2022-07-06T09:32:51;99693.53;;;21.42;50.97
43153;BME280;28756;49.064;9.290;2022-07-06T09:35:29;99672.47;;;21.99;50.88
43153;BME280;28756;49.064;9.290;2022-07-06T09:38:12;99672.00;;;23.07;49.93
43153;BME280;28756;49.064;9.290;2022-07-06T09:40:43;99673.94;;;23.33;48.39
43153;BME280;28756;49.064;9.290;2022-07-06T09:45:38;99679.47;;;22.76;50.01
43153;BME280;28756;49.064;9.290;2022-07-06T09:48:13;99676.81;;;23.58;49.79
43153;BME280;28756;49.064;9.290;2022-07-06T09:50:45;99674.53;;;23.45;48.65
43153;BME280;28756;49.064;9.290;2022-07-06T09:53:12;99677.81;;;23.11;47.68
43153;BME280;28756;49.064;9.290;2022-07-06T09:55:44;99680.34;;;23.12;49.75
43153;BME280;28756;49.064;9.290;2022-07-06T09:58:11;99674.63;;;24.32;48.66
43153;BME280;28756;49.064;9.290;2022-07-06T10:00:37;99679.59;;;22.46;50.76
43153;BME280;28756;49.064;9.290;2022-07-06T10:03:10;99690.09;;;22.18;50.65
43153;BME280;28756;49.064;9.290;2022-07-06T10:05:43;99697.31;;;21.59;53.10
43153;BME280;28756;49.064;9.290;2022-07-06T10:08:31;99690.56;;;22.04;51.92
43153;BME280;28756;49.064;9.290;2022-07-06T10:10:58;99700.03;;;20.98;53.60
43153;BME280;28756;49.064;9.290;2022-07-06T10:13:25;99702.84;;;21.17;52.64
43153;BME280;28756;49.064;9.290;2022-07-06T10:15:53;99688.84;;;21.65;52.28
43153;BME280;28756;49.064;9.290;2022-07-06T10:18:28;99690.03;;;22.00;51.32
43153;BME280;28756;49.064;9.290;2022-07-06T10:20:56;99680.03;;;22.42;51.30
43153;BME280;28756;49.064;9.290;2022-07-06T10:23:39;99692.44;;;21.93;51.00
43153;BME280;28756;49.064;9.290;2022-07-06T10:26:26;99697.16;;;22.00;51.55
43153;BME280;28756;49.064;9.290;2022-07-06T10:28:57;99685.78;;;22.27;52.63
43153;BME280;28756;49.064;9.290;2022-07-06T10:31:28;99686.50;;;23.49;48.98
43153;BME280;28756;49.064;9.290;2022-07-06T10:34:06;99689.75;;;22.51;50.20
43153;BME280;28756;49.064;9.290;2022-07-06T10:36:42;99688.56;;;23.37;50.50
43153;BME280;28756;49.064;9.290;2022-07-06T10:39:16;99695.50;;;23.02;48.44
43153;BME280;28756;49.064;9.290;2022-07-06T10:43:10;99686.31;;;23.14;49.14
43153;BME280;28756;49.064;9.290;2022-07-06T10:48:35;99686.09;;;23.62;49.58
43153;BME280;28756;49.064;9.290;2022-07-06T10:51:01;99703.25;;;22.00;51.43
43153;BME280;28756;49.064;9.290;2022-07-06T10:53:35;99690.41;;;22.15;51.06
43153;BME280;28756;49.064;9.290;2022-07-06T10:56:10;99695.19;;;22.02;51.80
43153;BME280;28756;49.064;9.290;2022-07-06T10:58:53;99693.88;;;22.63;48.75
43153;BME280;28756;49.064;9.290;2022-07-06T11:01:22;99691.63;;;22.68;50.99
43153;BME280;28756;49.064;9.290;2022-07-06T11:04:08;99685.59;;;23.22;50.15
43153;BME280;28756;49.064;9.290;2022-07-06T11:06:48;99686.59;;;22.93;49.19
43153;BME280;28756;49.064;9.290;2022-07-06T11:09:14;99685.75;;;23.21;50.94
43153;BME280;28756;49.064;9.290;2022-07-06T11:11:56;99680.84;;;22.52;50.56
43153;BME280;28756;49.064;9.290;2022-07-06T11:14:25;99692.94;;;21.09;51.92
43153;BME280;28756;49.064;9.290;2022-07-06T11:19:26;99687.03;;;22.33;49.99
43153;BME280;28756;49.064;9.290;2022-07-06T11:21:58;99692.31;;;22.70;48.75
43153;BME280;28756;49.064;9.290;2022-07-06T11:24:52;99681.25;;;23.57;47.15
43153;BME280;28756;49.064;9.290;2022-07-06T11:27:18;99686.19;;;22.70;49.79
43153;BME280;28756;49.064;9.290;2022-07-06T11:29:45;99696.56;;;22.06;50.02
43153;BME280;28756;49.064;9.290;2022-07-06T11:32:14;99681.56;;;22.72;48.97
43153;BME280;28756;49.064;9.290;2022-07-06T11:34:53;99680.72;;;21.76;49.02
43153;BME280;28756;49.064;9.290;2022-07-06T11:37:19;99679.50;;;22.18;49.79
43153;BME280;28756;49.064;9.290;2022-07-06T11:39:49;99672.66;;;21.88;50.37
43153;BME280;28756;49.064;9.290;2022-07-06T11:45:33;99670.53;;;21.91;49.54
43153;BME280;28756;49.064;9.290;2022-07-06T11:48:25;99669.78;;;22.19;50.20
43153;BME280;28756;49.064;9.290;2022-07-06T11:51:10;99658.88;;;22.22;49.04
43153;BME280;28756;49.064;9.290;2022-07-06T11:53:58;99664.56;;;22.93;46.85
43153;BME280;28756;49.064;9.290;2022-07-06T11:59:34;99657.47;;;23.11;47.54
43153;BME280;28756;49.064;9.290;2022-07-06T12:02:09;99661.31;;;22.53;47.85
43153;BME280;28756;49.064;9.290;2022-07-06T12:04:49;99660.03;;;22.57;46.57
43153;BME280;28756;49.064;9.290;2022-07-06T12:07:17;99664.97;;;22.70;49.70
43153;BME280;28756;49.064;9.290;2022-07-06T12:09:46;99659.56;;;21.76;48.72
43153;BME280;28756;49.064;9.290;2022-07-06T12:12:15;99655.59;;;22.00;49.03
43153;BME280;28756;49.064;9.290;2022-07-06T12:14:48;99659.41;;;21.88;49.17
43153;BME280;28756;49.064;9.290;2022-07-06T12:17:20;99655.50;;;22.30;47.46
43153;BME280;28756;49.064;9.290;2022-07-06T12:19:53;99648.59;;;22.57;47.61
43153;BME280;28756;49.064;9.290;2022-07-06T12:22:28;99647.69;;;22.66;48.19
43153;BME280;28756;49.064;9.290;2022-07-06T12:24:59;99648.69;;;22.65;47.59
43153;BME280;28756;49.064;9.290;2022-07-06T12:27:25;99653.34;;;22.53;48.63
43153;BME280;28756;49.064;9.290;2022-07-06T12:30:11;99655.63;;;23.12;49.40
43153;BME280;28756;49.064;9.290;2022-07-06T12:33:17;99647.56;;;23.31;46.81
43153;BME280;28756;49.064;9.290;2022-07-06T12:36:22;99646.22;;;22.53;46.22
43153;BME280;28756;49.064;9.290;2022-07-06T12:38:49;99653.59;;;23.06;45.42
43153;BME280;28756;49.064;9.290;2022-07-06T12:41:33;99639.25;;;23.16;46.67
43153;BME280;28756;49.064;9.290;2022-07-06T12:44:12;99652.66;;;22.51;49.89
43153;BME280;28756;49.064;9.290;2022-07-06T12:47:11;99644.75;;;22.69;48.05
43153;BME280;28756;49.064;9.290;2022-07-06T12:49:46;99641.47;;;22.57;45.99
43153;BME280;28756;49.064;9.290;2022-07-06T12:55:12;99656.28;;;22.50;46.23
43153;BME280;28756;49.064;9.290;2022-07-06T12:58:02;99648.19;;;22.97;46.39
43153;BME280;28756;49.064;9.290;2022-07-06T13:01:02;99653.44;;;23.25;44.67
43153;BME280;28756;49.064;9.290;2022-07-06T13:03:45;99645.19;;;23.28;47.63
43153;BME280;28756;49.064;9.290;2022-07-06T13:06:13;99642.13;;;22.87;46.26
43153;BME280;28756;49.064;9.290;2022-07-06T13:09:00;99646.59;;;22.86;45.63
43153;BME280;28756;49.064;9.290;2022-07-06T13:11:34;99646.88;;;22.65;45.77
43153;BME280;28756;49.064;9.290;2022-07-06T13:14:03;99642.59;;;22.17;45.81
43153;BME280;28756;49.064;9.290;2022-07-06T13:16:29;99638.56;;;22.78;45.21
43153;BME280;28756;49.064;9.290;2022-07-06T13:19:02;99645.38;;;23.17;45.66
43153;BME280;28756;49.064;9.290;2022-07-06T13:21:28;99643.06;;;22.68;45.47
43153;BME280;28756;49.064;9.290;2022-07-06T13:23:54;99651.59;;;22.90;45.44
43153;BME280;28756;49.064;9.290;2022-07-06T13:26:20;99650.09;;;21.74;46.32
43153;BME280;28756;49.064;9.290;2022-07-06T13:28:52;99644.09;;;22.19;47.30
43153;BME280;28756;49.064;9.290;2022-07-06T13:31:18;99647.41;;;22.69;44.38